Time,TemperatureF,DewpointF,PressureIn,WindDirection,WindDirectionDegrees,WindSpeedMPH,WindSpeedGustMPH,Humidity,HourlyPrecipIn,Conditions,Clouds,dailyrainin,SoftwareType,DateUTC
2015-07-06 00:03:00,70.0,55.0,-100.00,NE,55,5.0,10.0,59,-99.99,,,-99.99,,2015-07-06 08:03:00,
2015-07-06 00:12:00,70.0,55.0,-100.00,NE,55,5.0,10.0,59,-99.99,,,-99.99,,2015-07-06 08:12:00,
2015-07-06 00:21:00,67.0,55.0,-100.00,NE,34,5.0,9.0,66,-99.99,,,-99.99,,2015-07-06 08:21:00,
2015-07-06 00:43:00,67.0,55.0,-100.00,NE,34,5.0,9.0,66,-99.99,,,-99.99,,2015-07-06 08:43:00,
2015-07-06 00:53:00,67.0,55.0,-100.00,NE,34,5.0,9.0,66,-99.99,,,-99.99,,2015-07-06 08:53:00,
2015-07-06 01:03:00,67.0,55.0,-100.00,NE,34,5.0,9.0,66,-99.99,,,-99.99,,2015-07-06 09:03:00,
2015-07-06 01:12:00,67.0,55.0,-100.00,NE,34,5.0,9.0,66,-99.99,,,-99.99,,2015-07-06 09:12:00,
2015-07-06 01:21:00,65.0,55.0,-100.00,NE,45,6.0,8.0,69,-99.99,,,-99.99,,2015-07-06 09:21:00,
2015-07-06 01:44:00,65.0,55.0,-100.00,NE,45,6.0,8.0,69,-99.99,,,-99.99,,2015-07-06 09:44:00,
2015-07-06 01:53:00,65.0,55.0,-100.00,NE,45,6.0,8.0,69,-99.99,,,-99.99,,2015-07-06 09:53:00,
2015-07-06 02:02:00,65.0,55.0,-100.00,NE,45,6.0,8.0,69,-99.99,,,-99.99,,2015-07-06 10:02:00,
2015-07-06 02:12:00,65.0,55.0,-100.00,NE,45,6.0,8.0,69,-99.99,,,-99.99,,2015-07-06 10:12:00,
2015-07-06 02:21:00,63.0,56.0,-100.00,North,-9999,0.0,6.0,79,-99.99,,,-99.99,,2015-07-06 10:21:00,
2015-07-06 02:44:00,63.0,56.0,-100.00,North,-9999,0.0,6.0,79,-99.99,,,-99.99,,2015-07-06 10:44:00,
2015-07-06 02:54:00,63.0,56.0,-100.00,North,-9999,0.0,6.0,79,-99.99,,,-99.99,,2015-07-06 10:54:00,
2015-07-06 03:03:00,63.0,56.0,-100.00,North,-9999,0.0,6.0,79,-99.99,,,-99.99,,2015-07-06 11:03:00,
2015-07-06 03:12:00,63.0,56.0,-100.00,North,-9999,0.0,6.0,79,-99.99,,,-99.99,,2015-07-06 11:12:00,
2015-07-06 03:21:00,61.0,54.0,-100.00,NNW,347,3.0,5.0,79,-99.99,,,-99.99,,2015-07-06 11:21:00,
2015-07-06 03:44:00,61.0,54.0,-100.00,NNW,347,3.0,5.0,79,-99.99,,,-99.99,,2015-07-06 11:44:00,
2015-07-06 03:54:00,61.0,54.0,-100.00,NNW,347,3.0,5.0,79,-99.99,,,-99.99,,2015-07-06 11:54:00,
2015-07-06 04:03:00,61.0,54.0,-100.00,NNW,347,3.0,5.0,79,-99.99,,,-99.99,,2015-07-06 12:03:00,
2015-07-06 04:13:00,61.0,54.0,-100.00,NNW,347,3.0,5.0,79,-99.99,,,-99.99,,2015-07-06 12:13:00,
2015-07-06 04:21:00,59.0,54.0,-100.00,NNW,333,3.0,6.0,83,-99.99,,,-99.99,,2015-07-06 12:21:00,
2015-07-06 04:44:00,59.0,54.0,-100.00,NNW,333,3.0,6.0,83,-99.99,,,-99.99,,2015-07-06 12:44:00,
2015-07-06 04:54:00,59.0,54.0,-100.00,NNW,333,3.0,6.0,83,-99.99,,,-99.99,,2015-07-06 12:54:00,
2015-07-06 05:03:00,59.0,54.0,-100.00,NNW,333,3.0,6.0,83,-99.99,,,-99.99,,2015-07-06 13:03:00,
2015-07-06 05:12:00,59.0,54.0,-100.00,NNW,333,3.0,6.0,83,-99.99,,,-99.99,,2015-07-06 13:12:00,
2015-07-06 05:21:00,61.0,55.0,-100.00,WSW,253,2.0,6.0,82,-99.99,,,-99.99,,2015-07-06 13:21:00,
2015-07-06 05:44:00,61.0,55.0,-100.00,WSW,253,2.0,6.0,82,-99.99,,,-99.99,,2015-07-06 13:44:00,
2015-07-06 05:53:00,61.0,55.0,-100.00,WSW,253,2.0,6.0,82,-99.99,,,-99.99,,2015-07-06 13:53:00,
2015-07-06 06:02:00,61.0,55.0,-100.00,WSW,253,2.0,6.0,82,-99.99,,,-99.99,,2015-07-06 14:02:00,
2015-07-06 06:12:00,61.0,55.0,-100.00,WSW,253,2.0,6.0,82,-99.99,,,-99.99,,2015-07-06 14:12:00,
2015-07-06 06:21:00,61.0,55.0,-100.00,NW,315,1.0,4.0,81,-99.99,,,-99.99,,2015-07-06 14:21:00,
2015-07-06 06:44:00,61.0,55.0,-100.00,NW,315,1.0,4.0,81,-99.99,,,-99.99,,2015-07-06 14:44:00,
2015-07-06 06:53:00,61.0,55.0,-100.00,NW,315,1.0,4.0,81,-99.99,,,-99.99,,2015-07-06 14:53:00,
2015-07-06 07:03:00,61.0,55.0,-100.00,NW,315,1.0,4.0,81,-99.99,,,-99.99,,2015-07-06 15:03:00,
2015-07-06 07:12:00,61.0,55.0,-100.00,NW,315,1.0,4.0,81,-99.99,,,-99.99,,2015-07-06 15:12:00,
2015-07-06 07:21:00,62.0,56.0,-100.00,NW,309,2.0,5.0,80,-99.99,,,-99.99,,2015-07-06 15:21:00,
2015-07-06 07:44:00,62.0,56.0,-100.00,NW,309,2.0,5.0,80,-99.99,,,-99.99,,2015-07-06 15:44:00,
2015-07-06 07:54:00,62.0,56.0,-100.00,NW,309,2.0,5.0,80,-99.99,,,-99.99,,2015-07-06 15:54:00,
2015-07-06 08:03:00,62.0,56.0,-100.00,NW,309,2.0,5.0,80,-99.99,,,-99.99,,2015-07-06 16:03:00,
2015-07-06 08:13:00,62.0,56.0,-100.00,NW,309,2.0,5.0,80,-99.99,,,-99.99,,2015-07-06 16:13:00,
2015-07-06 08:21:00,64.0,57.0,-100.00,North,351,2.0,5.0,78,-99.99,,,-99.99,,2015-07-06 16:21:00,
2015-07-06 08:44:00,64.0,57.0,-100.00,North,351,2.0,5.0,78,-99.99,,,-99.99,,2015-07-06 16:44:00,
2015-07-06 08:54:00,64.0,57.0,-100.00,North,351,2.0,5.0,78,-99.99,,,-99.99,,2015-07-06 16:54:00,
2015-07-06 09:03:00,64.0,57.0,-100.00,North,351,2.0,5.0,78,-99.99,,,-99.99,,2015-07-06 17:03:00,
2015-07-06 09:13:00,64.0,57.0,-100.00,North,351,2.0,-999.0,78,-99.99,,,-99.99,,2015-07-06 17:13:00,
2015-07-06 09:21:00,67.0,58.0,-100.00,NW,322,2.0,5.0,74,-99.99,,,-99.99,,2015-07-06 17:21:00,
2015-07-06 09:44:00,67.0,58.0,-100.00,NW,322,2.0,5.0,74,-99.99,,,-99.99,,2015-07-06 17:44:00,
2015-07-06 09:54:00,67.0,58.0,-100.00,NW,322,2.0,5.0,74,-99.99,,,-99.99,,2015-07-06 17:54:00,
2015-07-06 10:03:00,67.0,58.0,-100.00,NW,322,2.0,5.0,74,-99.99,,,-99.99,,2015-07-06 18:03:00,
2015-07-06 10:13:00,67.0,58.0,-100.00,NW,322,2.0,5.0,74,-99.99,,,-99.99,,2015-07-06 18:13:00,
2015-07-06 10:21:00,71.0,59.0,-100.00,North,1,3.0,5.0,65,-99.99,,,-99.99,,2015-07-06 18:21:00,
2015-07-06 10:44:00,71.0,59.0,-100.00,North,1,3.0,5.0,65,-99.99,,,-99.99,,2015-07-06 18:44:00,
2015-07-06 10:54:00,71.0,59.0,-100.00,North,1,3.0,5.0,65,-99.99,,,-99.99,,2015-07-06 18:54:00,
2015-07-06 11:03:00,71.0,59.0,-100.00,North,1,3.0,5.0,65,-99.99,,,-99.99,,2015-07-06 19:03:00,
2015-07-06 11:12:00,71.0,59.0,-100.00,North,1,3.0,5.0,65,-99.99,,,-99.99,,2015-07-06 19:12:00,
2015-07-06 11:21:00,75.0,58.0,-100.00,North,0,4.0,7.0,56,-99.99,,,-99.99,,2015-07-06 19:21:00,
2015-07-06 11:44:00,75.0,58.0,-100.00,North,0,4.0,7.0,56,-99.99,,,-99.99,,2015-07-06 19:44:00,
2015-07-06 11:54:00,75.0,58.0,-100.00,North,0,4.0,7.0,56,-99.99,,,-99.99,,2015-07-06 19:54:00,
2015-07-06 12:03:00,75.0,58.0,-100.00,North,0,4.0,7.0,56,-99.99,,,-99.99,,2015-07-06 20:03:00,
2015-07-06 12:13:00,75.0,58.0,-100.00,North,0,4.0,7.0,56,-99.99,,,-99.99,,2015-07-06 20:13:00,
2015-07-06 12:21:00,79.0,56.0,-100.00,North,8,5.0,10.0,46,-99.99,,,-99.99,,2015-07-06 20:21:00,
2015-07-06 12:44:00,79.0,56.0,-100.00,North,8,5.0,10.0,46,-99.99,,,-99.99,,2015-07-06 20:44:00,
2015-07-06 12:54:00,79.0,56.0,-100.00,North,8,5.0,10.0,46,-99.99,,,-99.99,,2015-07-06 20:54:00,
2015-07-06 13:03:00,79.0,56.0,-100.00,North,8,5.0,10.0,46,-99.99,,,-99.99,,2015-07-06 21:03:00,
2015-07-06 13:12:00,79.0,56.0,-100.00,North,8,5.0,10.0,46,-99.99,,,-99.99,,2015-07-06 21:12:00,
2015-07-06 13:44:00,78.0,56.0,-100.00,NNW,333,5.0,10.0,46,-99.99,,,-99.99,,2015-07-06 21:44:00,